createdAt,value
2022-12-03T00:01:15.854Z,66913.84
2022-12-03T00:03:43.654Z,66912.41
2022-12-03T00:06:11.056Z,66916.09
2022-12-03T00:08:38.218Z,66918.34
2022-12-03T00:11:05.527Z,66903.31
2022-12-03T00:13:32.627Z,66912.59
2022-12-03T00:16:00.001Z,66913.72
2022-12-03T00:18:27.312Z,66908.47
2022-12-03T00:20:54.540Z,66902.53
2022-12-03T00:23:21.709Z,66909.22
2022-12-03T00:25:48.955Z,66908.31
2022-12-03T00:28:16.339Z,66893.78
2022-12-03T00:30:43.604Z,66898.94
2022-12-03T00:33:10.875Z,66887.94
2022-12-03T00:35:38.189Z,66892.41
2022-12-03T00:38:05.491Z,66888.50
2022-12-03T00:40:32.691Z,66904.19
2022-12-03T00:43:00.047Z,66916.09
2022-12-03T00:45:27.228Z,66915.41
2022-12-03T00:47:54.392Z,66905.31
2022-12-03T00:50:21.594Z,66905.09
2022-12-03T00:52:49.916Z,66909.81
2022-12-03T00:55:17.224Z,66914.28
2022-12-03T00:57:44.478Z,66916.31
2022-12-03T01:00:12.032Z,66918.56
2022-12-03T01:02:39.180Z,66912.41
2022-12-03T01:05:06.646Z,66905.09
2022-12-03T01:07:33.893Z,66903.31
2022-12-03T01:10:01.399Z,66911.47
2022-12-03T01:12:28.575Z,66914.28
2022-12-03T01:14:56.060Z,66914.28
2022-12-03T01:17:23.303Z,66919.66
2022-12-03T01:19:52.649Z,66912.41
2022-12-03T01:22:19.866Z,66920.44
2022-12-03T01:24:47.161Z,66912.59
2022-12-03T01:27:14.321Z,66907.56
2022-12-03T01:29:41.479Z,66915.19
2022-12-03T01:32:19.481Z,66915.19
2022-12-03T01:34:47.739Z,66911.47
2022-12-03T01:37:15.499Z,66911.47
2022-12-03T01:39:42.978Z,66917.09
2022-12-03T01:42:13.118Z,66913.50
2022-12-03T01:44:41.203Z,66917.44
2022-12-03T01:47:12.183Z,66921.94
2022-12-03T01:49:42.325Z,66916.53
2022-12-03T01:52:13.731Z,66910.56
2022-12-03T01:54:51.828Z,66917.09
2022-12-03T01:57:30.591Z,66906.44
2022-12-03T01:59:58.597Z,66910.38
2022-12-03T02:02:27.316Z,66906.78
2022-12-03T02:04:55.199Z,66906.22
2022-12-03T02:07:30.380Z,66910.91
2022-12-03T02:09:58.785Z,66905.53
2022-12-03T02:12:32.174Z,66905.75
2022-12-03T02:14:59.735Z,66906.44
2022-12-03T02:17:27.356Z,66901.38
2022-12-03T02:19:55.230Z,66902.53
2022-12-03T02:22:34.469Z,66904.19
2022-12-03T02:25:18.039Z,66903.06
2022-12-03T02:27:48.606Z,66906.44
2022-12-03T02:30:17.720Z,66897.69
2022-12-03T02:32:44.921Z,66900.28
2022-12-03T02:35:16.356Z,66901.38
2022-12-03T02:37:45.201Z,66901.94
2022-12-03T02:40:15.183Z,66903.97
2022-12-03T02:42:42.831Z,66903.06
2022-12-03T02:45:16.118Z,66905.09
2022-12-03T02:47:48.821Z,66910.38
2022-12-03T02:50:18.169Z,66912.41
2022-12-03T02:52:46.576Z,66912.94
2022-12-03T02:55:15.678Z,66914.63
2022-12-03T02:57:44.769Z,66905.31
2022-12-03T03:00:12.429Z,66914.75
2022-12-03T03:02:43.606Z,66902.53
2022-12-03T03:05:12.050Z,66913.50
2022-12-03T03:07:39.797Z,66912.59
2022-12-03T03:10:07.909Z,66907.78
2022-12-03T03:12:39.173Z,66899.69
2022-12-03T03:15:07.633Z,66898.44
2022-12-03T03:17:34.986Z,66904.41
2022-12-03T03:20:02.774Z,66904.41
2022-12-03T03:22:34.257Z,66903.84
2022-12-03T03:25:01.569Z,66906.78
2022-12-03T03:27:29.464Z,66902.53
2022-12-03T03:29:58.159Z,66911.28
2022-12-03T03:32:26.247Z,66901.75
2022-12-03T03:34:54.256Z,66902.28
2022-12-03T03:37:21.696Z,66909.59
2022-12-03T03:39:49.514Z,66904.19
2022-12-03T03:42:17.049Z,66900.28
2022-12-03T03:44:59.686Z,66903.06
2022-12-03T03:47:27.063Z,66893.78
2022-12-03T03:49:54.571Z,66905.09
2022-12-03T03:52:22.712Z,66895.22
2022-12-03T03:54:50.240Z,66906.00
2022-12-03T03:57:17.548Z,66907.34
2022-12-03T03:59:44.900Z,66900.47
2022-12-03T04:02:22.592Z,66900.28
2022-12-03T04:04:50.713Z,66905.09
2022-12-03T04:07:18.066Z,66900.84
2022-12-03T04:09:45.335Z,66910.50
2022-12-03T04:12:31.408Z,66907.91
2022-12-03T04:14:58.717Z,66891.72
2022-12-03T04:17:25.924Z,66897.13
2022-12-03T04:19:53.153Z,66907.69
2022-12-03T04:22:38.910Z,66900.84
2022-12-03T04:25:25.714Z,66899.84
2022-12-03T04:28:12.226Z,66901.53
2022-12-03T04:30:39.444Z,66901.53
2022-12-03T04:33:25.298Z,66902.88
2022-12-03T04:35:52.673Z,66900.84
2022-12-03T04:38:19.891Z,66897.47
2022-12-03T04:41:04.111Z,66893.19
2022-12-03T04:43:32.950Z,66890.19
2022-12-03T04:46:01.159Z,66894.66
2022-12-03T04:48:30.132Z,66890.53
2022-12-03T04:50:57.406Z,66891.66
2022-12-03T04:53:24.596Z,66898.03
2022-12-03T04:55:51.791Z,66896.91
2022-12-03T04:58:18.951Z,66890.94
2022-12-03T05:00:46.109Z,66902.53
2022-12-03T05:03:13.292Z,66899.16
2022-12-03T05:05:40.417Z,66897.81
2022-12-03T05:08:08.337Z,66901.03
2022-12-03T05:10:35.592Z,66906.56
2022-12-03T05:13:02.722Z,66896.91
2022-12-03T05:15:29.959Z,66895.22
2022-12-03T05:17:57.181Z,66902.53
2022-12-03T05:20:43.889Z,66899.56
2022-12-03T05:23:14.556Z,66897.13
2022-12-03T05:25:42.012Z,66906.22
2022-12-03T05:28:09.288Z,66898.94
2022-12-03T05:30:37.017Z,66903.63
2022-12-03T05:33:04.295Z,66905.31
2022-12-03T05:35:31.553Z,66906.22
2022-12-03T05:37:58.848Z,66904.75
2022-12-03T05:40:26.164Z,66904.19
2022-12-03T05:43:01.395Z,66910.91
2022-12-03T05:45:29.889Z,66912.06
2022-12-03T05:47:57.812Z,66908.31
2022-12-03T05:50:26.372Z,66915.41
2022-12-03T05:52:56.870Z,66910.91
2022-12-03T05:55:24.332Z,66910.38
2022-12-03T05:57:51.526Z,66910.91
2022-12-03T06:00:23.544Z,66912.06
2022-12-03T06:02:51.243Z,66909.22
2022-12-03T06:05:21.682Z,66909.22
2022-12-03T06:07:49.664Z,66915.75
2022-12-03T06:10:18.734Z,66914.84
2022-12-03T06:12:45.975Z,66917.78
2022-12-03T06:15:14.324Z,66914.84
2022-12-03T06:17:41.610Z,66910.91
2022-12-03T06:20:10.401Z,66904.41
2022-12-03T06:22:37.601Z,66918.00
2022-12-03T06:25:07.301Z,66921.94
2022-12-03T06:27:34.672Z,66923.59
2022-12-03T06:30:02.183Z,66921.00
2022-12-03T06:32:29.300Z,66910.00
2022-12-03T06:34:56.687Z,66918.56
2022-12-03T06:37:24.016Z,66922.84
2022-12-03T06:39:51.206Z,66917.44
2022-12-03T06:42:18.665Z,66919.13
2022-12-03T06:44:45.865Z,66914.06
2022-12-03T06:47:13.087Z,66906.09
2022-12-03T06:49:40.324Z,66920.44
2022-12-03T06:52:07.558Z,66914.28
2022-12-03T06:54:34.728Z,66913.50
2022-12-03T06:57:02.400Z,66912.25
2022-12-03T06:59:34.150Z,66916.31
2022-12-03T07:02:01.528Z,66921.94
2022-12-03T07:04:28.844Z,66919.13
2022-12-03T07:06:56.095Z,66915.19
2022-12-03T07:09:23.211Z,66928.44
2022-12-03T07:11:50.636Z,66911.69
2022-12-03T07:14:17.856Z,66918.91
2022-12-03T07:16:45.335Z,66888.75
2022-12-03T07:19:12.533Z,66910.91
2022-12-03T07:21:40.198Z,66919.66
2022-12-03T07:24:07.763Z,66922.25
2022-12-03T07:26:35.344Z,66926.41
2022-12-03T07:29:02.717Z,66937.84
2022-12-03T07:31:33.695Z,66935.59
2022-12-03T07:34:01.657Z,66929.97
2022-12-03T07:36:28.929Z,66927.41
2022-12-03T07:38:56.257Z,66942.66
2022-12-03T07:41:23.554Z,66940.06
2022-12-03T07:43:50.795Z,66953.19
2022-12-03T07:46:18.612Z,66950.19
2022-12-03T07:48:46.128Z,66959.91
2022-12-03T07:51:15.512Z,66951.28
2022-12-03T07:53:43.033Z,66959.72
2022-12-03T07:56:10.486Z,66957.81
2022-12-03T07:58:37.878Z,66964.19
2022-12-03T08:01:05.201Z,66962.94
2022-12-03T08:03:32.445Z,66968.91
2022-12-03T08:05:59.702Z,66973.19
2022-12-03T08:08:27.053Z,66967.00
2022-12-03T08:10:54.387Z,66969.03
2022-12-03T08:13:21.558Z,66965.53
2022-12-03T08:15:50.962Z,66982.72
2022-12-03T08:18:20.367Z,66975.78
2022-12-03T08:20:48.957Z,66971.25
2022-12-03T08:23:17.945Z,66974.28
2022-12-03T08:25:45.867Z,66972.03
2022-12-03T08:28:18.982Z,66973.38
2022-12-03T08:31:12.641Z,66971.25
2022-12-03T08:33:43.200Z,66979.69
2022-12-03T08:36:15.065Z,66982.13
2022-12-03T08:38:44.499Z,66994.25
2022-12-03T08:41:14.155Z,66987.06
2022-12-03T08:43:44.636Z,66999.19
2022-12-03T08:46:16.345Z,67000.66
2022-12-03T08:48:48.653Z,67004.03
2022-12-03T08:51:22.236Z,67014.13
2022-12-03T08:53:52.569Z,67024.38
2022-12-03T08:56:29.727Z,67019.38
2022-12-03T08:58:58.815Z,67035.59
2022-12-03T09:01:26.263Z,67041.97
2022-12-03T09:03:54.826Z,67030.59
2022-12-03T09:06:22.532Z,67033.97
2022-12-03T09:08:49.930Z,67037.13
2022-12-03T09:11:17.117Z,67039.16
2022-12-03T09:13:44.359Z,67036.56
2022-12-03T09:16:11.790Z,67034.34
2022-12-03T09:18:39.212Z,67044.97
2022-12-03T09:21:06.564Z,67053.97
2022-12-03T09:23:33.704Z,67047.22
2022-12-03T09:26:00.860Z,67052.63
2022-12-03T09:28:28.074Z,67042.75
2022-12-03T09:30:55.397Z,67052.63
2022-12-03T09:33:22.633Z,67054.16
2022-12-03T09:35:49.856Z,67062.59
2022-12-03T09:38:17.063Z,67074.16
2022-12-03T09:40:44.412Z,67078.31
2022-12-03T09:43:12.140Z,67085.41
2022-12-03T09:45:39.516Z,67082.59
2022-12-03T09:48:07.041Z,67089.13
2022-12-03T09:50:43.522Z,67091.38
2022-12-03T09:53:16.319Z,67102.59
2022-12-03T09:55:45.407Z,67095.72
2022-12-03T09:58:14.238Z,67110.34
2022-12-03T10:00:42.561Z,67107.66
2022-12-03T10:03:14.123Z,67099.44
2022-12-03T10:05:46.712Z,67092.16
2022-12-03T10:08:20.976Z,67109.19
2022-12-03T10:10:50.607Z,67121.69
2022-12-03T10:13:26.543Z,67113.47
2022-12-03T10:15:55.618Z,67101.69
2022-12-03T10:18:24.448Z,67100.78
2022-12-03T10:20:52.327Z,67092.16
2022-12-03T10:23:20.956Z,67111.44
2022-12-03T10:25:52.984Z,67113.69
2022-12-03T10:28:31.856Z,67106.72
2022-12-03T10:30:59.939Z,67103.38
2022-12-03T10:33:31.681Z,67107.88
2022-12-03T10:36:15.175Z,67104.50
2022-12-03T10:38:42.570Z,67105.28
2022-12-03T10:41:23.814Z,67097.97
2022-12-03T10:43:51.456Z,67104.50
2022-12-03T10:46:20.907Z,67100.91
2022-12-03T10:49:06.833Z,67095.09
2022-12-03T10:51:34.342Z,67091.56
2022-12-03T10:54:01.872Z,67091.00
2022-12-03T10:56:29.455Z,67097.19
2022-12-03T10:58:57.400Z,67107.88
2022-12-03T11:01:26.129Z,67105.06
2022-12-03T11:03:56.674Z,67099.78
2022-12-03T11:06:24.146Z,67088.41
2022-12-03T11:08:58.532Z,67095.53
2022-12-03T11:11:28.067Z,67093.41
2022-12-03T11:13:58.293Z,67085.97
2022-12-03T11:16:40.933Z,67088.91
2022-12-03T11:19:08.227Z,67093.63
2022-12-03T11:21:55.415Z,67096.63
2022-12-03T11:24:22.519Z,67090.25
2022-12-03T11:26:52.784Z,67090.03
2022-12-03T11:29:39.862Z,67090.47
2022-12-03T11:32:07.046Z,67091.56
2022-12-03T11:34:34.310Z,67097.19
2022-12-03T11:37:08.537Z,67086.19
2022-12-03T11:39:59.474Z,67099.28
2022-12-03T11:42:37.424Z,67105.75
2022-12-03T11:45:04.775Z,67097.75
2022-12-03T11:47:37.918Z,67101.13
2022-12-03T11:50:23.276Z,67096.63
2022-12-03T11:52:55.489Z,67096.28
2022-12-03T11:55:34.939Z,67101.91
2022-12-03T11:58:03.439Z,67109.56
2022-12-03T12:00:30.795Z,67126.06
2022-12-03T12:02:59.169Z,67140.03
2022-12-03T12:05:28.223Z,67140.78
2022-12-03T12:07:56.362Z,67146.63
2022-12-03T12:10:42.643Z,67120.97
2022-12-03T12:13:30.644Z,67142.13
2022-12-03T12:16:01.907Z,67139.88
2022-12-03T12:18:35.363Z,67149.44
2022-12-03T12:21:21.354Z,67137.84
2022-12-03T12:23:48.609Z,67144.94
2022-12-03T12:26:15.885Z,67131.03
2022-12-03T12:28:43.084Z,67129.75
2022-12-03T12:31:13.394Z,67130.88
2022-12-03T12:33:40.785Z,67117.06
2022-12-03T12:36:09.418Z,67105.47
2022-12-03T12:38:36.644Z,67117.19
2022-12-03T12:41:07.182Z,67101.53
2022-12-03T12:43:36.030Z,67108.00
2022-12-03T12:46:46.041Z,67103.94
2022-12-03T12:49:01.558Z,67103.03
2022-12-03T12:51:28.769Z,67098.88
2022-12-03T12:53:57.241Z,67094.38
2022-12-03T12:56:24.688Z,67098.69
2022-12-03T12:58:52.525Z,67084.28
2022-12-03T13:01:27.141Z,67089.69
2022-12-03T13:03:54.919Z,67087.09
2022-12-03T13:06:30.135Z,67088.97
2022-12-03T13:09:01.323Z,67090.66
2022-12-03T13:11:51.903Z,67091.00
2022-12-03T13:14:23.244Z,67095.53
2022-12-03T13:16:54.356Z,67101.13
2022-12-03T13:19:25.710Z,67107.66
2022-12-03T13:21:53.780Z,67114.03
2022-12-03T13:24:36.116Z,67116.09
2022-12-03T13:27:18.569Z,67123.03
2022-12-03T13:29:57.428Z,67120.44
2022-12-03T13:32:36.060Z,67126.59
2022-12-03T13:35:06.708Z,67129.75
2022-12-03T13:37:33.919Z,67129.97
2022-12-03T13:40:08.384Z,67128.09
2022-12-03T13:42:39.727Z,67120.78
2022-12-03T13:45:27.462Z,67127.16
2022-12-03T13:47:59.287Z,67132.56
2022-12-03T13:50:40.136Z,67127.50
2022-12-03T13:53:07.260Z,67136.09
2022-12-03T13:55:34.558Z,67141.56
2022-12-03T13:58:01.913Z,67138.75
2022-12-03T14:00:29.079Z,67146.25
2022-12-03T14:02:56.241Z,67143.81
2022-12-03T14:05:23.483Z,67143.25
2022-12-03T14:07:50.792Z,67135.38
2022-12-03T14:10:18.134Z,67146.63
2022-12-03T14:12:45.271Z,67144.38
2022-12-03T14:15:12.564Z,67146.97
2022-12-03T14:17:39.764Z,67147.16
2022-12-03T14:20:08.247Z,67157.66
2022-12-03T14:22:38.178Z,67148.09
2022-12-03T14:25:06.200Z,67148.84
2022-12-03T14:27:33.380Z,67153.38
2022-12-03T14:30:00.703Z,67158.41
2022-12-03T14:32:28.535Z,67161.22
2022-12-03T14:34:56.026Z,67161.22
2022-12-03T14:37:23.227Z,67163.47
2022-12-03T14:39:50.502Z,67147.94
2022-12-03T14:42:18.595Z,67147.16
2022-12-03T14:44:47.396Z,67155.38
2022-12-03T14:47:15.251Z,67148.31
2022-12-03T14:49:42.504Z,67148.53
2022-12-03T14:52:12.418Z,67149.00
2022-12-03T14:54:42.751Z,67139.31
2022-12-03T14:57:11.734Z,67137.28
2022-12-03T14:59:39.516Z,67144.72
2022-12-03T15:02:07.025Z,67137.06
2022-12-03T15:04:34.789Z,67123.38
2022-12-03T15:07:02.036Z,67130.34
2022-12-03T15:09:29.271Z,67131.09
2022-12-03T15:11:56.476Z,67127.75
2022-12-03T15:14:23.812Z,67128.84
2022-12-03T15:16:51.226Z,67128.09
2022-12-03T15:19:18.503Z,67115.72
2022-12-03T15:21:45.750Z,67112.00
2022-12-03T15:24:12.961Z,67112.56
2022-12-03T15:26:40.191Z,67115.16
2022-12-03T15:29:07.531Z,67117.97
2022-12-03T15:31:35.121Z,67115.16
2022-12-03T15:34:02.365Z,67112.16
2022-12-03T15:36:29.618Z,67110.88
2022-12-03T15:38:57.719Z,67108.66
2022-12-03T15:41:29.324Z,67111.44
2022-12-03T15:43:58.078Z,67115.38
2022-12-03T15:46:26.852Z,67106.19
2022-12-03T15:48:54.539Z,67103.03
2022-12-03T15:51:21.942Z,67103.59
2022-12-03T15:53:49.439Z,67112.00
2022-12-03T15:56:17.036Z,67109.00
2022-12-03T15:58:44.206Z,67113.84
2022-12-03T16:01:13.838Z,67109.91
2022-12-03T16:03:41.904Z,67109.56
2022-12-03T16:06:09.578Z,67120.38
2022-12-03T16:08:36.843Z,67106.19
2022-12-03T16:11:04.271Z,67107.88
2022-12-03T16:13:31.600Z,67094.59
2022-12-03T16:15:58.873Z,67094.03
2022-12-03T16:18:26.219Z,67112.34
2022-12-03T16:20:53.505Z,67111.59
2022-12-03T16:23:20.818Z,67113.69
2022-12-03T16:25:48.169Z,67118.13
2022-12-03T16:28:15.397Z,67099.88
2022-12-03T16:30:42.743Z,67116.09
2022-12-03T16:33:09.995Z,67112.00
2022-12-03T16:35:38.347Z,67107.50
2022-12-03T16:38:05.925Z,67101.91
2022-12-03T16:40:33.427Z,67120.22
2022-12-03T16:43:00.750Z,67117.97
2022-12-03T16:45:51.655Z,67112.34
2022-12-03T16:48:19.040Z,67108.66
2022-12-03T16:50:46.516Z,67116.63
2022-12-03T16:53:14.669Z,67115.72
2022-12-03T16:55:41.986Z,67109.00
2022-12-03T16:58:09.415Z,67116.09
2022-12-03T17:00:36.781Z,67109.19
2022-12-03T17:03:04.127Z,67106.41
2022-12-03T17:05:31.544Z,67112.34
2022-12-03T17:07:58.789Z,67108.28
2022-12-03T17:14:21.567Z,67113.69
2022-12-03T17:16:48.771Z,67114.94
2022-12-03T17:19:16.830Z,67121.69
2022-12-03T17:21:44.139Z,67128.66
2022-12-03T17:24:11.442Z,67119.66
2022-12-03T17:26:41.213Z,67135.72
2022-12-03T17:29:08.459Z,67129.75
2022-12-03T17:31:41.381Z,67135.94
2022-12-03T17:34:09.558Z,67145.28
2022-12-03T17:36:36.759Z,67143.81
2022-12-03T17:39:03.848Z,67145.28
2022-12-03T17:41:31.028Z,67145.63
2022-12-03T17:43:58.709Z,67142.69
2022-12-03T17:46:26.010Z,67145.28
2022-12-03T17:48:53.511Z,67149.78
2022-12-03T17:51:21.633Z,67154.47
2022-12-03T17:53:48.947Z,67153.22
2022-12-03T17:56:16.276Z,67165.50
2022-12-03T17:58:43.482Z,67162.13
2022-12-03T18:01:10.735Z,67168.66
2022-12-03T18:03:37.941Z,67161.22
2022-12-03T18:06:15.039Z,67168.53
2022-12-03T18:08:44.057Z,67165.94
2022-12-03T18:11:12.317Z,67168.19
2022-12-03T18:13:40.132Z,67167.03
2022-12-03T18:16:08.036Z,67164.25
2022-12-03T18:21:26.882Z,67162.34
2022-12-03T18:23:58.323Z,67158.22
2022-12-03T18:26:25.781Z,67158.22
2022-12-03T18:28:52.809Z,67154.47
2022-12-03T18:31:21.079Z,67157.28
2022-12-03T18:33:48.694Z,67167.53
2022-12-03T18:36:20.937Z,67169.09
2022-12-03T18:38:50.951Z,67177.88
2022-12-03T18:41:19.212Z,67158.97
2022-12-03T18:43:46.410Z,67161.06
2022-12-03T18:46:51.210Z,67162.34
2022-12-03T18:49:04.328Z,67162.34
2022-12-03T18:51:32.478Z,67165.94
2022-12-03T18:53:59.500Z,67165.34
2022-12-03T18:56:26.563Z,67170.41
2022-12-03T18:58:53.622Z,67183.13
2022-12-03T19:01:21.711Z,67175.69
2022-12-03T19:03:49.653Z,67178.09
2022-12-03T19:06:19.168Z,67177.88
2022-12-03T19:08:48.187Z,67178.84
2022-12-03T19:11:15.734Z,67183.47
2022-12-03T19:13:45.918Z,67174.56
2022-12-03T19:16:12.928Z,67186.88
2022-12-03T19:18:40.382Z,67189.88
2022-12-03T19:21:11.394Z,67181.66
2022-12-03T19:23:38.985Z,67185.38
2022-12-03T19:26:07.261Z,67178.09
2022-12-03T19:28:34.225Z,67172.66
2022-12-03T19:31:12.221Z,67172.47
2022-12-03T19:33:45.440Z,67177.88
2022-12-03T19:36:23.352Z,67186.88
2022-12-03T19:38:56.628Z,67179.19
2022-12-03T19:41:26.730Z,67177.50
2022-12-03T19:43:54.524Z,67183.13
2022-12-03T19:46:22.312Z,67182.94
2022-12-03T19:48:49.280Z,67184.63
2022-12-03T19:51:33.462Z,67183.72
2022-12-03T19:54:03.446Z,67177.72
2022-12-03T19:56:30.575Z,67176.41
2022-12-03T19:58:57.899Z,67178.78
2022-12-03T20:01:30.853Z,67175.50
2022-12-03T20:04:01.897Z,67177.31
2022-12-03T20:06:30.060Z,67179.41
2022-12-03T20:09:14.183Z,67177.16
2022-12-03T20:11:44.617Z,67186.50
2022-12-03T20:14:16.848Z,67172.09
2022-12-03T20:16:44.575Z,67189.09
2022-12-03T20:19:16.148Z,67178.66
2022-12-03T20:21:44.088Z,67173.38
2022-12-03T20:24:13.446Z,67174.00
2022-12-03T20:26:41.067Z,67176.53
2022-12-03T20:29:10.994Z,67173.56
2022-12-03T20:31:46.626Z,67165.72
2022-12-03T20:34:18.835Z,67169.66
2022-12-03T20:36:46.260Z,67175.06
2022-12-03T20:39:14.281Z,67165.34
2022-12-03T20:41:43.642Z,67171.88
2022-12-03T20:44:10.587Z,67161.78
2022-12-03T20:46:37.695Z,67164.03
2022-12-03T20:49:04.747Z,67163.81
2022-12-03T20:51:31.846Z,67161.22
2022-12-03T20:54:01.232Z,67154.69
2022-12-03T20:56:40.205Z,67165.28
2022-12-03T20:59:08.309Z,67158.97
2022-12-03T21:01:38.945Z,67160.25
2022-12-03T21:04:09.594Z,67160.09
2022-12-03T21:06:37.084Z,67162.50
2022-12-03T21:09:06.902Z,67162.69
2022-12-03T21:11:35.849Z,67159.19
2022-12-03T21:14:04.093Z,67158.06
2022-12-03T21:17:06.419Z,67158.97
2022-12-03T21:19:20.968Z,67161.06
2022-12-03T21:21:48.510Z,67169.09
2022-12-03T21:24:15.541Z,67168.31
2022-12-03T21:26:45.280Z,67164.59
2022-12-03T21:29:12.328Z,67163.66
2022-12-03T21:31:39.980Z,67168.66
2022-12-03T21:34:10.040Z,67165.72
2022-12-03T21:36:40.091Z,67162.56
2022-12-03T21:39:07.078Z,67165.72
2022-12-03T21:41:35.504Z,67167.97
2022-12-03T21:44:02.936Z,67165.34
2022-12-03T21:47:12.280Z,67163.47
2022-12-03T21:49:19.283Z,67165.72
2022-12-03T21:51:46.820Z,67156.94
2022-12-03T21:54:19.959Z,67162.69
2022-12-03T21:56:46.941Z,67163.47
2022-12-03T21:59:15.696Z,67172.81
2022-12-03T22:01:47.329Z,67162.34
2022-12-03T22:04:14.666Z,67165.16
2022-12-03T22:06:44.591Z,67162.34
2022-12-03T22:09:12.622Z,67160.44
2022-12-03T22:11:39.828Z,67157.50
2022-12-03T22:14:09.630Z,67154.69
2022-12-03T22:16:36.657Z,67166.97
2022-12-03T22:19:04.005Z,67169.09
2022-12-03T22:21:31.149Z,67164.94
2022-12-03T22:24:01.412Z,67166.44
2022-12-03T22:26:28.317Z,67167.41
2022-12-03T22:28:55.272Z,67162.00
2022-12-03T22:31:23.532Z,67162.13
2022-12-03T22:33:50.468Z,67163.47
2022-12-03T22:36:21.877Z,67162.34
2022-12-03T22:38:51.832Z,67155.59
2022-12-03T22:41:19.612Z,67157.66
2022-12-03T22:44:07.590Z,67157.28
2022-12-03T22:46:34.732Z,67161.00
2022-12-03T22:49:06.837Z,67160.44
2022-12-03T22:51:38.917Z,67161.22
2022-12-03T22:54:08.366Z,67153.00
2022-12-03T22:56:35.323Z,67156.16
2022-12-03T22:59:02.845Z,67160.44
2022-12-03T23:01:30.881Z,67153.72
2022-12-03T23:04:01.244Z,67159.13
2022-12-03T23:06:32.339Z,67148.31
2022-12-03T23:08:59.451Z,67149.44
2022-12-03T23:11:33.969Z,67155.97
2022-12-03T23:14:01.092Z,67159.31
2022-12-03T23:16:30.097Z,67158.41
2022-12-03T23:18:58.167Z,67146.63
2022-12-03T23:21:29.942Z,67152.22
2022-12-03T23:24:00.776Z,67154.47
2022-12-03T23:26:28.414Z,67152.22
2022-12-03T23:28:55.399Z,67156.16
2022-12-03T23:31:23.117Z,67156.53
2022-12-03T23:33:51.526Z,67157.66
2022-12-03T23:36:19.079Z,67151.47
2022-12-03T23:38:46.152Z,67147.38
2022-12-03T23:41:14.895Z,67151.13
2022-12-03T23:43:42.006Z,67156.53
2022-12-03T23:46:13.219Z,67156.72
2022-12-03T23:48:40.642Z,67151.69
2022-12-03T23:51:08.647Z,67154.84
2022-12-03T23:53:35.908Z,67160.66
2022-12-03T23:56:06.567Z,67151.88
2022-12-03T23:58:33.970Z,67152.78
